Terminal Aerodrome Forecast
Issued by NWS

Current Version | Previous Version | Graphics & Text | Print | Product List | Glossary On
Versions: 1 2 3 4 5 6 7 8 9 10 11 12 13 14 15 16 17 18 19 20 21 22 23 24 25 26 27 28 29
737
FTUS41 KPBZ 252127 AAA
TAFMGW
TAF AMD
KMGW 252127Z 2521/2618 24010KT P6SM VCTS BKN035CB
      TEMPO 2521/2523 33015G30KT 2SM -TSRA
     FM252300 26003KT P6SM SCT250
     FM260800 26003KT 3SM BR SCT250
     FM261000 28003KT 2SM BR SCT003
     FM261300 30005KT P6SM SKC=

USA.gov is the U.S. government's official web portal to all federal, state and local government web resources and services.